Time;durP1;ratioP1;P1;durP2;ratioP2;P2;SDS_P1;SDS_P2;PMS_P1;PMS_P2;Temp;Humidity;BMP_temperature;BMP_pressure;BME280_temperature;BME280_humidity;BME280_pressure;Samples;Min_cycle;Max_cycle;Signal;HPM_P1;HPM_P2
2023/08/07 00:01:47;;;;;;;2.95;0.82;;;;;;;12.76;66.88;100561.50;5045962;28;20044;-60
2023/08/07 00:04:13;;;;;;;1.98;0.80;;;;;;;12.75;67.50;100557.19;5043932;28;20052;-59
2023/08/07 00:06:40;;;;;;;2.70;0.80;;;;;;;12.74;65.89;100558.06;5037635;28;20114;-60
2023/08/07 00:09:07;;;;;;;4.05;0.95;;;;;;;12.71;66.58;100551.13;5039121;28;20041;-59
2023/08/07 00:11:33;;;;;;;5.07;0.98;;;;;;;12.69;66.28;100549.41;5040295;28;20045;-59
2023/08/07 00:14:00;;;;;;;2.55;1.30;;;;;;;12.66;67.30;100552.88;5042470;28;20041;-59
2023/08/07 00:16:27;;;;;;;2.92;2.55;;;;;;;12.65;67.68;100556.34;5040845;28;20535;-59
2023/08/07 00:18:55;;;;;;;2.25;1.08;;;;;;;12.62;67.61;100555.47;5036748;28;20049;-59
2023/08/07 00:21:23;;;;;;;2.05;0.80;;;;;;;12.59;66.52;100556.38;5041815;28;20045;-60
2023/08/07 00:23:50;;;;;;;3.72;0.90;;;;;;;12.56;67.28;100554.66;5040770;28;20048;-61
2023/08/07 00:26:17;;;;;;;4.13;0.90;;;;;;;12.55;66.37;100560.72;5042495;28;20041;-60
2023/08/07 00:28:44;;;;;;;3.53;0.90;;;;;;;12.51;67.52;100547.72;5038960;28;20569;-60
2023/08/07 00:31:12;;;;;;;2.78;1.27;;;;;;;12.47;67.74;100554.69;5036803;28;20084;-59
2023/08/07 00:33:39;;;;;;;3.03;0.93;;;;;;;12.45;66.44;100556.41;5042697;28;20474;-59
2023/08/07 00:36:06;;;;;;;3.88;1.08;;;;;;;12.41;67.47;100547.78;5033161;28;20064;-61
2023/08/07 00:38:32;;;;;;;2.42;1.10;;;;;;;12.39;67.12;100539.09;5039492;28;20193;-60
2023/08/07 00:40:59;;;;;;;2.85;1.65;;;;;;;12.37;66.96;100534.78;5042962;28;20049;-60
2023/08/07 00:43:26;;;;;;;3.13;1.02;;;;;;;12.36;67.83;100527.88;5044338;28;20530;-59
2023/08/07 00:45:53;;;;;;;2.28;0.82;;;;;;;12.33;67.10;100529.59;5041528;28;20037;-59
2023/08/07 00:48:21;;;;;;;3.53;1.48;;;;;;;12.32;67.65;100530.47;5043027;28;20148;-59
2023/08/07 00:50:49;;;;;;;2.30;1.20;;;;;;;12.29;68.24;100533.06;5041215;28;20750;-60
2023/08/07 00:53:16;;;;;;;2.45;1.08;;;;;;;12.27;67.01;100532.22;5039804;28;20056;-61
2023/08/07 00:55:43;;;;;;;3.20;0.82;;;;;;;12.26;67.62;100538.25;5039364;28;20041;-60
2023/08/07 00:58:10;;;;;;;5.28;1.10;;;;;;;12.27;67.62;100534.81;5043974;28;20048;-59
2023/08/07 01:00:37;;;;;;;5.03;1.55;;;;;;;12.23;67.94;100538.28;5043449;28;20049;-59
2023/08/07 01:03:06;;;;;;;3.30;1.30;;;;;;;12.22;68.83;100531.34;5042481;28;20049;-60
2023/08/07 01:05:34;;;;;;;3.25;1.10;;;;;;;12.21;68.58;100540.00;5041849;28;20059;-59
2023/08/07 01:08:02;;;;;;;3.80;1.23;;;;;;;12.18;68.23;100537.41;5043356;28;20068;-59
2023/08/07 01:13:33;;;;;;;5.05;1.80;;;;;;;12.11;68.67;100535.69;5048039;27;20400;-60
2023/08/07 01:16:08;;;;;;;2.90;1.60;;;;;;;12.11;68.26;100531.38;5053950;28;20045;-59
2023/08/07 01:18:37;;;;;;;3.63;1.92;;;;;;;12.10;69.12;100531.38;5049055;28;20505;-60
2023/08/07 01:21:04;;;;;;;2.92;1.55;;;;;;;12.07;68.39;100530.53;5040337;28;20095;-60
2023/08/07 01:23:31;;;;;;;4.93;1.67;;;;;;;12.04;69.34;100522.69;5042906;28;20041;-60
2023/08/07 01:25:57;;;;;;;4.22;2.10;;;;;;;12.01;69.13;100522.69;5047056;28;20045;-60
2023/08/07 01:28:36;;;;;;;4.65;1.63;;;;;;;11.98;68.36;100517.50;5055602;28;20094;-61
2023/08/07 01:31:10;;;;;;;5.55;1.88;;;;;;;11.94;69.71;100505.38;5052625;28;20049;-60
2023/08/07 01:33:47;;;;;;;4.25;1.67;;;;;;;11.96;68.51;100508.88;5059888;28;20543;-60
2023/08/07 01:36:16;;;;;;;4.22;1.60;;;;;;;11.94;68.75;100510.59;5057410;28;20056;-60
2023/08/07 01:38:45;;;;;;;3.20;1.60;;;;;;;11.93;69.57;100508.84;5057875;28;20036;-60
2023/08/07 01:41:12;;;;;;;3.03;1.77;;;;;;;11.92;69.26;100504.53;5051526;28;20057;-60
2023/08/07 01:43:39;;;;;;;2.55;1.50;;;;;;;11.90;69.86;100503.66;5050760;28;20052;-61
2023/08/07 01:46:06;;;;;;;4.80;2.15;;;;;;;11.91;69.34;100505.38;5053902;28;20054;-61
2023/08/07 01:48:33;;;;;;;4.47;1.25;;;;;;;11.89;69.95;100507.13;5054545;28;20069;-60
2023/08/07 01:50:59;;;;;;;3.85;1.10;;;;;;;11.88;69.52;100500.19;5056511;28;20094;-61
2023/08/07 01:53:26;;;;;;;2.92;1.75;;;;;;;11.87;69.93;100508.84;5054358;28;20048;-59
2023/08/07 01:55:53;;;;;;;3.42;1.75;;;;;;;11.87;69.80;100508.84;5055577;28;20049;-60
2023/08/07 01:58:19;;;;;;;3.13;1.48;;;;;;;11.86;70.07;100507.13;5060257;28;20056;-61
2023/08/07 02:00:46;;;;;;;3.65;1.65;;;;;;;11.86;70.45;100512.31;5058500;28;20044;-61
2023/08/07 02:03:13;;;;;;;5.53;1.42;;;;;;;11.84;70.46;100509.72;5043248;28;21397;-60
2023/08/07 02:05:39;;;;;;;5.38;1.88;;;;;;;11.85;69.68;100510.59;5040350;28;20041;-59
2023/08/07 02:08:06;;;;;;;5.30;2.08;;;;;;;11.83;70.39;100506.25;5039043;28;20475;-61
2023/08/07 02:10:34;;;;;;;5.55;1.73;;;;;;;11.82;69.38;100509.72;5040103;28;20068;-60
2023/08/07 02:13:00;;;;;;;4.13;2.67;;;;;;;11.79;70.45;100501.94;5040112;28;20413;-61
2023/08/07 02:15:27;;;;;;;3.25;2.40;;;;;;;11.79;69.93;100507.13;5045131;28;20389;-60
2023/08/07 02:17:54;;;;;;;2.55;1.30;;;;;;;11.77;69.62;100508.88;5035695;28;20060;-61
2023/08/07 02:20:21;;;;;;;2.25;1.13;;;;;;;11.75;69.53;100505.41;5043369;28;20486;-61
2023/08/07 02:22:47;;;;;;;4.38;2.03;;;;;;;11.74;70.06;100503.69;5044515;28;20073;-62
2023/08/07 02:25:14;;;;;;;3.58;1.70;;;;;;;11.71;69.46;100503.66;5036438;28;20057;-61
2023/08/07 02:27:40;;;;;;;6.15;2.45;;;;;;;11.71;70.41;100511.44;5032257;28;20453;-61
2023/08/07 02:30:08;;;;;;;4.88;1.88;;;;;;;11.71;70.34;100511.44;5039013;28;20056;-61
2023/08/07 02:32:35;;;;;;;4.93;1.77;;;;;;;11.69;69.89;100510.59;5034807;28;20051;-60
2023/08/07 02:35:01;;;;;;;3.35;1.38;;;;;;;11.68;70.39;100512.31;5029412;28;20486;-61
2023/08/07 02:37:28;;;;;;;4.20;2.28;;;;;;;11.67;70.89;100522.69;5032580;28;20119;-61
2023/08/07 02:39:55;;;;;;;3.50;1.70;;;;;;;11.67;71.04;100528.75;5027598;28;20054;-60
2023/08/07 02:42:21;;;;;;;2.85;1.42;;;;;;;11.65;71.46;100520.09;5023574;28;20037;-60
2023/08/07 02:44:48;;;;;;;3.97;1.98;;;;;;;11.66;71.11;100531.34;5037371;28;20041;-61
2023/08/07 02:47:14;;;;;;;4.97;2.10;;;;;;;11.64;71.23;100526.16;5035917;28;20057;-61
2023/08/07 02:49:41;;;;;;;5.65;2.03;;;;;;;11.64;70.09;100522.69;5037340;28;20049;-61
2023/08/07 02:52:08;;;;;;;4.07;1.98;;;;;;;11.63;71.10;100529.63;5034775;28;20041;-60
2023/08/07 02:54:34;;;;;;;4.30;1.98;;;;;;;11.63;71.60;100533.94;5030971;28;20513;-61
2023/08/07 02:57:01;;;;;;;5.60;1.92;;;;;;;11.61;70.82;100530.47;5024402;28;20049;-62
2023/08/07 02:59:27;;;;;;;6.32;1.98;;;;;;;11.60;70.65;100523.56;5035103;28;20063;-60
2023/08/07 03:01:54;;;;;;;6.32;1.70;;;;;;;11.59;71.34;100525.31;5034391;28;20045;-62
2023/08/07 03:04:21;;;;;;;8.05;2.70;;;;;;;11.59;70.76;100525.31;5031915;28;20049;-61
2023/08/07 03:06:48;;;;;;;7.60;2.50;;;;;;;11.59;70.94;100534.81;5033312;28;20195;-61
2023/08/07 03:09:14;;;;;;;7.25;2.30;;;;;;;11.59;71.02;100529.63;5034194;28;20053;-60
2023/08/07 03:11:41;;;;;;;5.55;3.72;;;;;;;11.57;72.02;100527.91;5033738;28;20608;-61
2023/08/07 03:14:07;;;;;;;7.57;2.35;;;;;;;11.56;71.14;100530.47;5030261;28;20045;-61
2023/08/07 03:16:34;;;;;;;6.25;2.60;;;;;;;11.55;71.46;100534.78;5035428;28;20049;-59
2023/08/07 03:19:01;;;;;;;6.55;3.00;;;;;;;11.53;70.79;100528.75;5034162;28;20045;-60
2023/08/07 03:21:27;;;;;;;6.07;3.53;;;;;;;11.52;70.80;100527.00;5023184;28;20430;-61
2023/08/07 03:23:54;;;;;;;4.85;2.22;;;;;;;11.52;71.78;100534.78;5029347;28;20052;-61
2023/08/07 03:26:21;;;;;;;6.03;2.47;;;;;;;11.51;70.88;100532.19;5029158;28;20532;-62
2023/08/07 03:28:48;;;;;;;5.32;2.33;;;;;;;11.49;71.52;100534.81;5030533;28;20482;-62
2023/08/07 03:31:15;;;;;;;5.57;2.15;;;;;;;11.47;72.04;100528.75;5031580;28;20096;-61
2023/08/07 03:33:42;;;;;;;6.53;2.40;;;;;;;11.45;71.21;100530.44;5032099;28;20041;-62
2023/08/07 03:36:09;;;;;;;6.57;2.58;;;;;;;11.45;71.49;100530.44;5028981;28;20046;-62
2023/08/07 03:38:36;;;;;;;6.57;2.25;;;;;;;11.43;70.99;100525.28;5030709;28;20054;-62
2023/08/07 03:41:03;;;;;;;5.13;1.98;;;;;;;11.42;72.30;100522.69;5027446;28;20532;-61
2023/08/07 03:43:29;;;;;;;5.10;2.47;;;;;;;11.40;71.95;100524.41;5027237;28;20057;-62
2023/08/07 03:45:56;;;;;;;6.30;2.58;;;;;;;11.38;71.54;100520.97;5028234;28;20048;-61
2023/08/07 03:48:28;;;;;;;5.85;2.45;;;;;;;11.35;71.06;100518.34;5027005;28;20072;-61
2023/08/07 03:51:03;;;;;;;5.40;1.90;;;;;;;11.31;71.08;100514.88;5028466;28;20048;-61
2023/08/07 03:53:29;;;;;;;5.28;1.92;;;;;;;11.29;71.43;100517.47;5028448;28;20045;-61
2023/08/07 03:55:56;;;;;;;6.32;1.80;;;;;;;11.27;71.09;100508.81;5034753;28;20042;-61
2023/08/07 03:58:22;;;;;;;5.60;3.47;;;;;;;11.26;71.31;100511.41;5035834;28;20626;-60
2023/08/07 04:00:51;;;;;;;5.57;2.70;;;;;;;11.23;71.16;100512.28;5024881;28;20052;-61
2023/08/07 04:03:19;;;;;;;6.72;2.25;;;;;;;11.21;72.27;100502.78;5026468;28;20780;-61
2023/08/07 04:05:46;;;;;;;5.38;2.15;;;;;;;11.19;71.08;100507.94;5036577;28;20053;-61
2023/08/07 04:08:13;;;;;;;6.07;1.90;;;;;;;11.18;71.99;100503.63;5026746;28;20045;-63
2023/08/07 04:10:39;;;;;;;3.97;2.00;;;;;;;11.15;72.19;100506.22;5026258;28;20057;-62
2023/08/07 04:13:06;;;;;;;4.72;1.80;;;;;;;11.13;71.15;100508.81;5032107;28;20037;-61
2023/08/07 04:15:32;;;;;;;4.70;2.10;;;;;;;11.11;71.79;100510.50;5030333;28;20068;-62
2023/08/07 04:17:59;;;;;;;4.43;2.20;;;;;;;11.11;72.46;100512.25;5025259;28;20453;-61
2023/08/07 04:20:26;;;;;;;3.67;1.85;;;;;;;11.10;71.91;100513.09;5028356;28;20135;-61
2023/08/07 04:22:53;;;;;;;6.88;2.30;;;;;;;11.09;72.29;100511.38;5028109;28;20115;-61
2023/08/07 04:25:19;;;;;;;4.95;2.20;;;;;;;11.08;72.67;100513.09;5021913;28;20045;-62
2023/08/07 04:27:46;;;;;;;5.65;1.90;;;;;;;11.07;72.52;100511.38;5029348;28;20041;-61
2023/08/07 04:30:13;;;;;;;5.30;1.60;;;;;;;11.05;72.41;100506.19;5035544;28;20729;-62
2023/08/07 04:32:40;;;;;;;4.13;2.13;;;;;;;11.07;71.97;100507.94;5027008;28;20325;-61
2023/08/07 04:35:07;;;;;;;4.30;1.88;;;;;;;11.07;72.06;100507.94;5031267;28;20497;-61
2023/08/07 04:37:34;;;;;;;6.05;1.58;;;;;;;11.06;71.91;100504.47;5026705;28;20045;-61
2023/08/07 04:40:00;;;;;;;6.28;1.63;;;;;;;11.09;72.38;100511.38;5024819;28;20052;-61
2023/08/07 04:42:27;;;;;;;3.80;2.03;;;;;;;11.10;72.73;100510.50;5029405;28;20048;-60
2023/08/07 04:44:54;;;;;;;3.22;1.20;;;;;;;11.09;72.42;100513.97;5032320;28;20052;-60
2023/08/07 04:47:20;;;;;;;7.22;1.60;;;;;;;11.11;72.44;100514.84;5030129;28;20040;-60
2023/08/07 04:49:47;;;;;;;4.25;1.60;;;;;;;11.13;72.55;100515.69;5035134;28;20049;-61
2023/08/07 04:52:14;;;;;;;5.28;2.38;;;;;;;11.13;73.17;100508.81;5023866;28;20048;-61
2023/08/07 04:54:51;;;;;;;5.72;1.83;;;;;;;11.14;72.39;100512.25;5029371;28;20049;-60
2023/08/07 04:57:18;;;;;;;4.55;1.65;;;;;;;11.15;73.02;100521.78;5025514;28;20123;-61
2023/08/07 04:59:45;;;;;;;4.97;1.85;;;;;;;11.17;73.70;100517.44;5008694;28;20098;-60
2023/08/07 05:02:12;;;;;;;4.50;1.67;;;;;;;11.19;73.75;100515.72;5028838;28;20054;-60
2023/08/07 05:04:38;;;;;;;3.35;1.85;;;;;;;11.20;73.29;100512.28;5031855;28;20578;-61
2023/08/07 05:07:05;;;;;;;4.28;1.65;;;;;;;11.19;73.97;100521.75;5025979;28;20060;-61
2023/08/07 05:09:32;;;;;;;3.47;1.73;;;;;;;11.21;73.58;100508.81;5032729;28;20709;-61
2023/08/07 05:11:59;;;;;;;5.50;1.75;;;;;;;11.23;73.98;100527.84;5031994;28;20051;-60
2023/08/07 05:14:25;;;;;;;4.25;1.83;;;;;;;11.25;72.86;100520.91;5031846;28;20049;-62
2023/08/07 05:16:52;;;;;;;4.45;1.75;;;;;;;11.26;73.49;100511.41;5030072;28;20063;-61
2023/08/07 05:19:18;;;;;;;5.25;1.73;;;;;;;11.27;74.21;100506.25;5025994;28;20077;-62
2023/08/07 05:21:49;;;;;;;6.68;2.08;;;;;;;11.30;73.16;100508.84;5030757;28;20510;-61
2023/08/07 05:24:17;;;;;;;4.38;1.45;;;;;;;11.34;74.18;100508.84;5025842;28;20048;-60
2023/08/07 05:26:44;;;;;;;6.13;2.45;;;;;;;11.39;73.57;100507.97;5013921;28;20521;-61
2023/08/07 05:29:11;;;;;;;7.25;2.33;;;;;;;11.46;74.41;100507.97;5030492;28;20057;-61
2023/08/07 05:31:37;;;;;;;3.88;2.85;;;;;;;11.56;74.42;100504.53;5018775;28;20473;-60
2023/08/07 05:34:04;;;;;;;3.58;1.95;;;;;;;11.65;74.32;100498.50;5031128;28;20053;-61
2023/08/07 05:36:32;;;;;;;4.43;1.73;;;;;;;11.77;73.89;100498.50;5031535;28;20046;-60
2023/08/07 05:38:59;;;;;;;3.88;1.63;;;;;;;11.91;73.96;100498.47;5029060;28;20052;-60
2023/08/07 05:41:26;;;;;;;3.67;1.70;;;;;;;12.04;74.59;100501.94;5024756;28;20068;-60
2023/08/07 05:43:52;;;;;;;3.67;1.85;;;;;;;12.15;75.01;100508.84;5031008;28;20052;-60
2023/08/07 05:46:19;;;;;;;4.25;1.65;;;;;;;12.28;74.95;100505.38;5031125;28;20115;-62
2023/08/07 05:48:46;;;;;;;3.75;1.75;;;;;;;12.40;73.72;100511.41;5027856;28;20056;-61
2023/08/07 05:51:13;;;;;;;5.22;1.77;;;;;;;12.51;74.13;100512.22;5027334;28;20079;-61
2023/08/07 05:53:39;;;;;;;2.22;1.25;;;;;;;12.65;74.60;100506.09;5026819;28;20049;-61
2023/08/07 05:56:06;;;;;;;2.95;1.30;;;;;;;12.80;74.53;100508.63;5030023;28;20052;-60
2023/08/07 05:58:33;;;;;;;3.88;1.40;;;;;;;12.93;74.52;100513.78;5025680;28;20514;-61
2023/08/07 06:00:59;;;;;;;3.42;1.63;;;;;;;13.07;74.74;100511.97;5028034;28;20049;-61
2023/08/07 06:03:26;;;;;;;1.88;0.98;;;;;;;13.22;74.10;100510.16;5030203;28;20049;-61
2023/08/07 06:05:53;;;;;;;4.63;1.65;;;;;;;13.37;73.91;100510.06;5030648;28;20037;-60
2023/08/07 06:08:20;;;;;;;2.10;1.27;;;;;;;13.46;72.68;100508.25;5028791;28;20062;-61
2023/08/07 06:10:47;;;;;;;1.95;0.90;;;;;;;13.45;72.28;100512.59;5029444;28;20052;-61
2023/08/07 06:13:13;;;;;;;3.55;1.50;;;;;;;13.39;72.65;100519.59;5025822;28;20057;-61
2023/08/07 06:15:56;;;;;;;3.53;1.15;;;;;;;13.34;71.86;100519.63;5034656;28;20071;-61
2023/08/07 06:18:22;;;;;;;4.03;1.50;;;;;;;13.31;72.52;100515.28;5030787;28;20546;-61
2023/08/07 06:20:49;;;;;;;3.60;1.23;;;;;;;13.32;72.49;100517.03;5020377;28;20508;-61
2023/08/07 06:23:16;;;;;;;3.50;1.23;;;;;;;13.37;72.97;100517.88;5030332;28;20062;-61
2023/08/07 06:25:42;;;;;;;3.10;1.10;;;;;;;13.42;73.61;100517.84;5035401;28;20049;-60
2023/08/07 06:28:09;;;;;;;2.63;0.95;;;;;;;13.51;73.71;100510.88;5030249;28;20087;-61
2023/08/07 06:30:36;;;;;;;3.60;1.48;;;;;;;13.62;72.99;100520.31;5036456;28;20060;-60
2023/08/07 06:33:02;;;;;;;1.92;0.90;;;;;;;13.81;73.07;100520.16;5041691;28;20048;-60
2023/08/07 06:35:29;;;;;;;3.20;1.58;;;;;;;14.18;73.37;100518.09;5035971;28;20448;-61
2023/08/07 06:37:56;;;;;;;2.75;1.23;;;;;;;14.53;72.84;100524.69;5033945;28;20071;-60
2023/08/07 06:40:23;;;;;;;3.97;1.42;;;;;;;14.90;73.12;100526.00;5036683;28;20045;-61
2023/08/07 06:42:49;;;;;;;4.47;2.38;;;;;;;15.26;71.91;100535.94;5034485;28;20390;-61
2023/08/07 06:45:16;;;;;;;2.42;1.10;;;;;;;15.58;71.44;100537.22;5030351;28;20724;-60
2023/08/07 06:47:42;;;;;;;1.88;0.75;;;;;;;15.86;70.72;100535.88;5035410;28;20056;-59
2023/08/07 06:50:10;;;;;;;3.47;1.02;;;;;;;16.10;70.19;100532.00;5033076;28;20143;-60
2023/08/07 06:52:37;;;;;;;2.17;1.25;;;;;;;16.28;70.11;100528.19;5035196;28;20053;-60
2023/08/07 06:55:05;;;;;;;2.33;1.13;;;;;;;16.50;69.96;100542.59;5036266;28;20045;-60
2023/08/07 06:57:31;;;;;;;3.13;1.27;;;;;;;16.59;69.21;100539.81;5020942;28;20085;-60
2023/08/07 07:00:02;;;;;;;2.05;1.25;;;;;;;16.63;68.89;100538.88;5035827;28;20041;-59
2023/08/07 07:02:29;;;;;;;3.13;1.55;;;;;;;16.65;68.20;100541.47;5030585;28;20041;-59
2023/08/07 07:04:55;;;;;;;1.77;1.25;;;;;;;16.62;68.00;100536.28;5027275;28;20516;-60
2023/08/07 07:07:22;;;;;;;3.20;1.90;;;;;;;16.73;68.69;100539.53;5032957;28;20702;-60
2023/08/07 07:09:49;;;;;;;2.05;1.23;;;;;;;17.01;67.94;100538.09;5031630;28;20042;-60
2023/08/07 07:12:15;;;;;;;2.20;1.42;;;;;;;17.27;68.31;100540.16;5033214;28;20061;-59
2023/08/07 07:14:42;;;;;;;2.03;1.17;;;;;;;17.49;67.12;100533.56;5036975;28;20045;-60
2023/08/07 07:17:09;;;;;;;3.42;0.90;;;;;;;17.71;66.17;100534.78;5040719;28;20052;-59
2023/08/07 07:19:36;;;;;;;5.82;2.85;;;;;;;17.93;65.88;100533.38;5035128;28;21725;-60
2023/08/07 07:22:02;;;;;;;3.03;0.88;;;;;;;18.16;65.11;100539.78;5029760;28;20517;-60
2023/08/07 07:24:29;;;;;;;3.20;1.35;;;;;;;18.45;65.31;100544.25;5019435;28;20064;-60
2023/08/07 07:26:56;;;;;;;2.60;1.02;;;;;;;18.72;64.79;100544.38;5027130;28;20539;-61
2023/08/07 07:29:22;;;;;;;2.22;1.17;;;;;;;19.02;64.46;100539.09;5020718;28;20071;-59
2023/08/07 07:31:50;;;;;;;3.55;1.08;;;;;;;19.26;64.00;100539.28;5028300;28;20051;-60
2023/08/07 07:34:17;;;;;;;2.28;1.15;;;;;;;19.48;63.80;100533.34;5027205;28;20108;-60
2023/08/07 07:36:45;;;;;;;1.17;0.88;;;;;;;19.71;63.31;100542.25;5032285;28;20109;-60
2023/08/07 07:39:12;;;;;;;1.90;1.20;;;;;;;19.91;62.46;100540.72;5028677;28;20140;-59
2023/08/07 07:41:39;;;;;;;4.35;1.05;;;;;;;20.17;62.25;100539.00;5023923;28;20075;-59
2023/08/07 07:44:06;;;;;;;2.88;0.95;;;;;;;20.35;61.55;100539.25;5018904;28;20050;-59
2023/08/07 07:46:32;;;;;;;2.78;1.70;;;;;;;20.56;61.15;100534.97;5025116;28;20050;-60
2023/08/07 07:49:00;;;;;;;2.80;1.27;;;;;;;20.74;60.92;100545.75;5018550;28;20426;-58
2023/08/07 07:51:29;;;;;;;1.50;0.90;;;;;;;20.97;59.94;100537.00;5017889;28;20057;-58
2023/08/07 07:53:55;;;;;;;1.40;0.77;;;;;;;21.06;59.19;100541.91;5025777;28;20075;-60
2023/08/07 07:56:40;;;;;;;3.63;1.20;;;;;;;21.12;59.43;100539.97;5012370;28;20127;-59
2023/08/07 07:59:06;;;;;;;2.85;0.80;;;;;;;21.31;59.42;100540.94;5020274;28;20045;-58
2023/08/07 08:01:35;;;;;;;4.30;0.90;;;;;;;21.53;58.69;100542.72;5027553;28;20199;-59
2023/08/07 08:04:02;;;;;;;1.20;0.63;;;;;;;21.72;58.37;100549.88;5024685;28;20133;-60
2023/08/07 08:06:30;;;;;;;3.30;1.10;;;;;;;21.94;57.99;100554.25;5019056;28;20777;-59
2023/08/07 08:08:57;;;;;;;1.50;0.77;;;;;;;22.08;56.99;100557.16;5013812;28;20053;-59
2023/08/07 08:11:24;;;;;;;2.25;0.77;;;;;;;22.09;56.82;100558.88;5016751;28;20139;-58
2023/08/07 08:13:50;;;;;;;3.20;0.75;;;;;;;22.24;56.23;100556.50;5020966;28;20041;-58
2023/08/07 08:16:17;;;;;;;3.83;0.98;;;;;;;22.47;56.16;100552.00;5020975;28;20128;-58
2023/08/07 08:18:44;;;;;;;2.03;1.15;;;;;;;22.57;54.96;100561.25;5020733;28;20042;-56
2023/08/07 08:21:11;;;;;;;0.93;0.60;;;;;;;22.60;54.33;100555.81;5023331;28;20053;-56
2023/08/07 08:23:38;;;;;;;1.45;0.82;;;;;;;22.66;54.38;100556.47;5027641;28;20049;-55
2023/08/07 08:26:04;;;;;;;3.50;1.25;;;;;;;22.79;54.07;100549.69;5013824;28;20049;-58
2023/08/07 08:28:31;;;;;;;1.80;0.60;;;;;;;22.95;54.27;100559.53;5015786;28;20058;-58
2023/08/07 08:30:58;;;;;;;3.35;1.33;;;;;;;22.96;54.30;100559.47;5025123;28;20045;-58
2023/08/07 08:33:25;;;;;;;1.20;0.82;;;;;;;23.04;53.69;100556.47;5029425;28;20046;-57
2023/08/07 08:35:51;;;;;;;2.78;0.88;;;;;;;22.90;53.09;100554.47;5033474;28;20565;-59
2023/08/07 08:38:19;;;;;;;2.45;1.15;;;;;;;23.00;52.83;100559.34;5023595;28;20046;-59
2023/08/07 08:40:47;;;;;;;1.40;1.00;;;;;;;23.12;52.85;100553.47;5023791;28;20049;-59
2023/08/07 08:43:14;;;;;;;1.92;0.90;;;;;;;23.02;52.81;100565.38;5026198;28;20045;-60
2023/08/07 08:45:41;;;;;;;2.78;1.10;;;;;;;22.97;52.93;100562.97;5034032;28;20049;-59
2023/08/07 08:48:17;;;;;;;1.60;0.85;;;;;;;23.06;52.44;100561.66;5042088;28;20044;-59
2023/08/07 08:50:44;;;;;;;4.53;2.25;;;;;;;23.16;51.28;100559.44;5033723;28;20410;-59
2023/08/07 08:53:12;;;;;;;1.02;0.65;;;;;;;23.24;51.57;100565.25;5021879;28;20053;-59
2023/08/07 08:55:42;;;;;;;3.10;0.65;;;;;;;23.25;51.61;100564.31;5028596;28;20040;-59
2023/08/07 08:58:09;;;;;;;2.55;1.00;;;;;;;23.30;51.18;100562.28;5032339;28;20049;-57
2023/08/07 09:00:36;;;;;;;2.60;0.90;;;;;;;23.47;51.81;100558.03;5033648;28;20054;-58
2023/08/07 09:03:03;;;;;;;1.65;1.02;;;;;;;23.59;50.92;100557.41;5025337;28;20405;-59
2023/08/07 09:05:31;;;;;;;1.80;0.95;;;;;;;23.69;51.31;100557.81;5034831;28;20098;-58
2023/08/07 09:08:01;;;;;;;1.65;0.85;;;;;;;23.88;51.12;100557.72;5034176;28;20052;-58
2023/08/07 09:10:27;;;;;;;;;;;;;;;23.94;49.90;100555.72;5031893;28;20049;-58
2023/08/07 09:13:05;;;;;;;1.45;0.85;;;;;;;23.88;49.67;100552.44;5036240;28;19921;-58
2023/08/07 09:15:33;;;;;;;2.78;0.85;;;;;;;23.83;49.25;100562.41;5029819;28;20128;-58
2023/08/07 09:18:00;;;;;;;2.05;1.08;;;;;;;23.91;49.43;100562.00;5022244;28;20752;-58
2023/08/07 09:20:28;;;;;;;3.15;1.63;;;;;;;24.03;49.46;100554.38;5030697;28;20060;-57
2023/08/07 09:22:55;;;;;;;1.63;0.90;;;;;;;24.10;49.60;100546.03;5019896;28;20530;-58
2023/08/07 09:25:31;;;;;;;3.08;0.82;;;;;;;24.22;49.16;100552.50;5029793;28;20688;-58
2023/08/07 09:27:58;;;;;;;1.70;1.02;;;;;;;24.34;48.46;100543.06;5026361;28;20056;-58
2023/08/07 09:30:28;;;;;;;2.58;1.30;;;;;;;24.32;47.24;100534.34;5033696;28;20049;-57
2023/08/07 09:32:58;;;;;;;1.52;1.42;;;;;;;24.27;47.98;100533.75;5028223;28;20045;-59
2023/08/07 09:35:25;;;;;;;1.33;0.70;;;;;;;24.17;48.08;100535.16;5031201;28;20238;-58
2023/08/07 09:37:53;;;;;;;2.75;0.88;;;;;;;24.23;48.04;100534.84;5031220;28;20107;-58
2023/08/07 09:40:20;;;;;;;2.88;0.82;;;;;;;24.21;46.75;100537.56;5027941;28;20063;-58
2023/08/07 09:42:52;;;;;;;2.67;0.63;;;;;;;23.98;47.33;100544.03;5028682;28;20107;-58
2023/08/07 09:45:21;;;;;;;1.77;0.93;;;;;;;23.97;47.40;100544.97;5039554;28;20052;-58
2023/08/07 09:47:57;;;;;;;2.88;1.02;;;;;;;24.11;47.16;100547.78;5039477;28;20077;-59
2023/08/07 09:50:24;;;;;;;1.90;1.30;;;;;;;24.25;47.26;100538.28;5024870;28;20499;-59
2023/08/07 09:52:51;;;;;;;1.23;0.88;;;;;;;24.45;47.07;100528.44;5031342;28;20058;-58
2023/08/07 09:55:18;;;;;;;1.65;1.33;;;;;;;24.50;45.91;100521.06;5030037;28;20038;-59
2023/08/07 09:57:45;;;;;;;3.03;2.78;;;;;;;24.39;46.19;100529.59;5030654;28;21041;-59
2023/08/07 10:00:14;;;;;;;2.20;1.15;;;;;;;24.49;46.38;100517.56;5033369;28;20052;-58
2023/08/07 10:02:42;;;;;;;1.58;0.73;;;;;;;24.49;45.76;100519.38;5025658;28;20079;-58
2023/08/07 10:05:11;;;;;;;2.58;1.88;;;;;;;24.52;45.64;100513.94;5029064;28;20597;-58
2023/08/07 10:07:38;;;;;;;1.40;0.90;;;;;;;24.68;45.50;100513.09;5031742;28;20048;-59
2023/08/07 10:10:06;;;;;;;2.90;1.05;;;;;;;24.94;46.44;100508.16;5032695;28;20507;-60
2023/08/07 10:12:34;;;;;;;2.08;0.93;;;;;;;25.05;44.81;100504.91;5029118;28;20041;-59
2023/08/07 10:15:01;;;;;;;2.50;1.20;;;;;;;25.13;44.84;100497.38;5022602;28;20136;-59
2023/08/07 10:17:29;;;;;;;3.22;0.50;;;;;;;25.25;45.23;100507.25;5021092;28;20048;-59
2023/08/07 10:19:56;;;;;;;1.27;1.13;;;;;;;25.24;43.40;100504.69;5029090;28;20071;-59
2023/08/07 10:22:26;;;;;;;2.97;0.85;;;;;;;25.23;43.74;100503.00;5026819;28;20083;-60
2023/08/07 10:24:53;;;;;;;;;;;;;;;24.92;41.92;100499.44;5031003;28;20409;-60
2023/08/07 10:27:23;;;;;;;1.05;0.75;;;;;;;24.86;42.75;100498.81;5023220;28;19925;-59
2023/08/07 10:29:53;;;;;;;1.45;1.35;;;;;;;24.85;43.55;100502.44;5038342;28;20041;-60
2023/08/07 10:32:21;;;;;;;2.22;0.77;;;;;;;24.97;43.66;100489.44;5029281;28;20084;-59
2023/08/07 10:34:50;;;;;;;1.75;0.85;;;;;;;25.09;43.83;100496.69;5024632;28;20068;-59
2023/08/07 10:40:13;;;;;;;3.53;1.90;;;;;;;25.42;44.38;100485.09;5025041;27;20441;-60
2023/08/07 10:42:59;;;;;;;3.95;2.45;;;;;;;25.55;42.65;100481.69;5021886;28;20049;-60
2023/08/07 10:45:27;;;;;;;2.78;2.08;;;;;;;25.61;42.73;100492.00;5021982;28;20041;-59
2023/08/07 10:48:18;;;;;;;4.03;2.25;;;;;;;25.24;40.50;100483.50;5012621;28;20073;-60
2023/08/07 10:50:51;;;;;;;2.97;2.33;;;;;;;25.25;41.92;100490.50;5015367;28;20075;-60
2023/08/07 10:53:21;;;;;;;2.70;1.15;;;;;;;25.30;42.72;100491.09;5017298;28;20669;-61
2023/08/07 10:55:48;;;;;;;2.95;2.10;;;;;;;25.34;42.09;100484.69;5018975;28;20053;-60
2023/08/07 10:58:23;;;;;;;3.28;1.75;;;;;;;25.47;42.30;100484.81;5035389;28;20514;-61
2023/08/07 11:00:52;;;;;;;2.05;1.52;;;;;;;25.61;41.92;100486.69;5036321;28;20041;-61
2023/08/07 11:03:28;;;;;;;3.58;1.83;;;;;;;25.75;42.50;100477.91;5028279;28;20061;-62
2023/08/07 11:05:58;;;;;;;5.50;1.98;;;;;;;25.93;41.86;100475.94;5018548;28;20062;-61
2023/08/07 11:08:25;;;;;;;4.65;2.17;;;;;;;26.10;42.94;100489.94;5016502;28;20057;-62
2023/08/07 11:10:54;;;;;;;3.97;1.92;;;;;;;26.17;41.08;100478.00;5014432;28;20053;-62
2023/08/07 11:13:21;;;;;;;3.13;1.95;;;;;;;26.16;41.33;100476.31;5010853;28;20053;-62
2023/08/07 11:15:49;;;;;;;2.20;1.75;;;;;;;26.32;41.33;100483.34;5008138;28;20417;-62
2023/08/07 11:18:16;;;;;;;2.75;1.95;;;;;;;26.50;40.68;100477.81;5012821;28;20045;-62
2023/08/07 11:20:44;;;;;;;3.13;2.47;;;;;;;26.64;41.14;100479.63;5010784;28;20494;-63
2023/08/07 11:23:11;;;;;;;3.53;2.08;;;;;;;26.75;41.28;100479.75;5016388;28;20830;-62
2023/08/07 11:25:38;;;;;;;2.38;2.10;;;;;;;26.80;40.63;100476.81;5013389;28;20046;-61
2023/08/07 11:28:04;;;;;;;2.88;1.10;;;;;;;26.74;39.51;100469.25;5009033;28;20446;-61
2023/08/07 11:30:31;;;;;;;2.75;2.55;;;;;;;26.58;40.17;100474.69;5010072;28;20522;-60
2023/08/07 11:32:58;;;;;;;2.35;2.08;;;;;;;26.51;39.45;100479.53;5008521;28;20081;-61
2023/08/07 11:35:25;;;;;;;3.67;1.73;;;;;;;26.54;40.28;100474.00;5014882;28;20128;-61